CST,Max TemperatureF,Mean TemperatureF,Min TemperatureF,Max Dew PointF,MeanDew PointF,Min DewpointF,Max Humidity, Mean Humidity, Min Humidity, Max Sea Level PressureIn, Mean Sea Level PressureIn, Min Sea Level PressureIn, Max VisibilityMiles, Mean VisibilityMiles, Min VisibilityMiles, Max Wind SpeedMPH, Mean Wind SpeedMPH, Max Gust SpeedMPH,PrecipitationIn, CloudCover, Events, WindDirDegrees
2012-12-1,82,73,64,65,62,59,94,74,45,30.17,30.10,30.06,10,10,7,18,9,29,0.00,4,,160
2012-12-2,82,75,68,65,63,60,78,68,47,30.21,30.14,30.07,10,10,10,18,11,25,0.00,4,,163
2012-12-3,80,72,64,63,61,58,88,73,50,30.13,30.07,30.02,10,10,10,17,10,25,0.00,3,,164
2012-12-4,75,67,55,60,47,30,87,54,35,30.34,30.22,30.11,10,10,8,17,7,21,0.00,2,,303
2012-12-5,73,60,48,45,35,25,74,42,25,30.37,30.23,30.05,10,10,10,9,5,,0.00,0,,341
2012-12-6,73,62,51,54,50,46,94,73,46,30.08,29.96,29.84,10,8,1,14,8,20,0.00,4,,145
2012-12-7,73,64,55,62,57,52,94,85,59,29.94,29.88,29.80,10,6,1,10,3,,0.02,5,,171
2012-12-8,80,70,59,63,59,55,90,77,50,30.00,29.88,29.79,10,9,5,12,2,,0.00,5,,171
2012-12-9,82,68,53,66,58,37,94,71,39,30.06,29.88,29.78,10,9,4,18,10,25,0.00,4,,179
2012-12-10,50,44,35,20,15,12,46,34,24,30.27,30.15,30.02,10,10,9,24,17,34,0.00,2,Snow,321
2012-12-11,54,40,27,20,15,9,66,39,17,30.33,30.23,30.10,10,10,9,7,3,,0.00,0,,10
2012-12-12,61,44,28,22,18,13,63,37,19,30.43,30.30,30.21,10,10,10,9,3,,0.00,0,,133
2012-12-13,68,52,37,33,28,20,65,39,25,30.40,30.25,30.16,10,10,10,15,7,23,0.00,3,,145
2012-12-14,71,63,55,63,51,33,78,68,40,30.22,30.03,29.86,10,10,10,17,9,29,0.01,8,Rain,134
2012-12-15,73,67,61,64,48,35,88,57,26,29.99,29.92,29.86,10,10,3,12,6,,0.15,5,Rain,234
2012-12-16,72,64,55,48,43,34,60,48,26,29.93,29.83,29.75,10,10,10,14,5,,0.00,2,Thunderstorm,257
2012-12-17,70,60,50,32,27,19,48,32,14,29.99,29.90,29.85,10,10,10,21,10,23,0.00,0,,270
2012-12-18,86,66,45,56,35,25,73,36,14,29.90,29.84,29.77,10,10,10,13,6,17,0.00,0,,172
2012-12-19,82,73,64,63,57,10,88,63,11,29.90,29.76,29.63,10,9,4,30,13,44,0.00,5,,171
2012-12-20,63,50,37,20,8,-4,38,22,8,30.56,30.34,29.95,10,10,5,33,23,47,0.00,1,,308
2012-12-21,64,48,32,12,9,5,38,22,11,30.60,30.45,30.35,10,10,10,10,3,,0.00,0,Snow,183
2012-12-22,70,56,41,51,27,11,70,33,21,30.34,30.21,30.07,10,10,10,21,8,29,0.00,1,,175
2012-12-23,75,65,55,56,51,42,90,62,35,30.03,29.95,29.88,10,10,10,20,9,20,0.00,1,,193
2012-12-24,66,54,42,45,26,18,56,36,16,30.03,29.90,29.76,10,10,10,13,5,,0.00,1,,13
2012-12-25,55,42,30,46,31,18,86,60,38,30.16,29.82,29.54,10,9,6,40,12,51,0.09,7,Rain-Thunderstorm,311
2012-12-26,39,32,24,23,18,14,72,58,43,30.41,30.19,30.11,10,10,10,23,13,26,0.00,2,,320
2012-12-27,46,37,28,43,30,20,93,67,53,30.13,29.95,29.83,10,6,1,10,4,,0.01,5,,105
2012-12-28,53,44,34,45,37,23,93,76,60,30.23,29.99,29.81,10,9,2,22,9,28,0.02,6,,308
2012-12-29,53,42,30,24,21,18,67,49,26,30.44,30.38,30.25,10,10,10,12,7,,0.00,0,,324
2012-12-30,46,38,30,29,23,19,73,53,35,30.43,30.33,30.19,10,10,10,13,4,,0.00,2,Rain,115
2012-12-31,55,48,42,52,47,32,94,90,60,30.25,30.03,29.95,10,4,1,21,4,31,0.10,8,Rain,62